Time;durP1;ratioP1;P1;durP2;ratioP2;P2;SDS_P1;SDS_P2;PMS_P1;PMS_P2;Temp;Humidity;BMP_temperature;BMP_pressure;BME280_temperature;BME280_humidity;BME280_pressure;Samples;Min_cycle;Max_cycle;Signal;HPM_P1;HPM_P2
2022/09/02 00:01:36;;;;;;;;;;;21.90;64.90;;;;;;5032796;28;1274;-65
2022/09/02 00:04:04;;;;;;;;;;;21.90;64.90;;;;;;5032824;28;1906;-66
2022/09/02 00:06:30;;;;;;;;;;;21.90;64.90;;;;;;5032684;28;1230;-66
2022/09/02 00:08:55;;;;;;;;;;;21.90;65.00;;;;;;5032986;28;1276;-67
2022/09/02 00:11:22;;;;;;;;;;;21.90;65.00;;;;;;5031658;28;1447;-67
2022/09/02 00:13:48;;;;;;;;;;;21.90;65.00;;;;;;5031727;28;1323;-66
2022/09/02 00:16:13;;;;;;;;;;;21.90;65.10;;;;;;5033122;28;1390;-66
2022/09/02 00:18:39;;;;;;;;;;;21.90;65.10;;;;;;5031833;28;1274;-66
2022/09/02 00:21:04;;;;;;;;;;;21.90;65.10;;;;;;5030911;28;1064;-66
2022/09/02 00:23:30;;;;;;;;;;;21.90;65.10;;;;;;5031281;28;1951;-67
2022/09/02 00:25:55;;;;;;;;;;;21.90;65.10;;;;;;5031360;28;1148;-66
2022/09/02 00:28:21;;;;;;;;;;;21.90;65.10;;;;;;5032545;28;1183;-66
2022/09/02 00:30:46;;;;;;;;;;;21.90;65.10;;;;;;5032783;28;1310;-66
2022/09/02 00:33:15;;;;;;;;;;;21.90;65.10;;;;;;5032427;28;1294;-67
2022/09/02 00:35:40;;;;;;;;;;;21.90;65.20;;;;;;5031180;28;1261;-67
2022/09/02 00:38:06;;;;;;;;;;;21.90;65.20;;;;;;5032458;28;1279;-67
2022/09/02 00:40:31;;;;;;;;;;;21.90;65.20;;;;;;5032318;28;1338;-67
2022/09/02 00:42:57;;;;;;;;;;;21.90;65.20;;;;;;5030931;28;1902;-66
2022/09/02 00:45:23;;;;;;;;;;;21.90;65.30;;;;;;5031199;28;1285;-66
2022/09/02 00:47:51;;;;;;;;;;;21.90;65.30;;;;;;5033124;28;1282;-66
2022/09/02 00:50:18;;;;;;;;;;;21.90;65.30;;;;;;5030763;28;1360;-66
2022/09/02 00:52:48;;;;;;;;;;;21.90;65.30;;;;;;5032742;28;1435;-65
2022/09/02 00:55:14;;;;;;;;;;;21.90;65.40;;;;;;5036242;28;1335;-65
2022/09/02 00:57:47;;;;;;;;;;;21.90;65.40;;;;;;5034805;28;1072;-66
2022/09/02 01:00:16;;;;;;;;;;;21.90;65.40;;;;;;5035869;28;1280;-66
2022/09/02 01:02:42;;;;;;;;;;;21.90;65.40;;;;;;5034157;28;1969;-65
2022/09/02 01:05:09;;;;;;;;;;;21.90;65.40;;;;;;5034622;28;1467;-67
2022/09/02 01:07:35;;;;;;;;;;;21.90;65.50;;;;;;5036241;28;1267;-66
2022/09/02 01:10:01;;;;;;;;;;;21.90;65.50;;;;;;5034498;28;1562;-66
2022/09/02 01:12:26;;;;;;;;;;;21.90;65.50;;;;;;5035508;28;1287;-65
2022/09/02 01:14:52;;;;;;;;;;;21.90;65.50;;;;;;5034585;28;1423;-65
2022/09/02 01:17:18;;;;;;;;;;;21.90;65.50;;;;;;5035580;28;1279;-66
2022/09/02 01:19:44;;;;;;;;;;;21.90;65.50;;;;;;5043018;22;2516;-83
2022/09/02 01:22:17;;;;;;;;;;;21.90;65.60;;;;;;5060947;22;2093;-67
2022/09/02 01:24:43;;;;;;;;;;;21.90;65.60;;;;;;5041224;28;1902;-67
2022/09/02 01:27:08;;;;;;;;;;;21.90;65.60;;;;;;5055507;28;1275;-67
2022/09/02 01:29:33;;;;;;;;;;;21.90;65.60;;;;;;5054144;28;1417;-68
2022/09/02 01:31:59;;;;;;;;;;;21.90;65.60;;;;;;5036895;28;1331;-69
2022/09/02 01:34:24;;;;;;;;;;;21.90;65.70;;;;;;5054080;28;1315;-69
2022/09/02 01:36:50;;;;;;;;;;;21.90;65.70;;;;;;5054209;28;1292;-69
2022/09/02 01:39:15;;;;;;;;;;;21.90;65.70;;;;;;5054043;28;1277;-69
2022/09/02 01:41:41;;;;;;;;;;;21.90;65.80;;;;;;5053481;28;1368;-69
2022/09/02 01:44:06;;;;;;;;;;;21.90;65.70;;;;;;5053837;28;1951;-68
2022/09/02 01:46:32;;;;;;;;;;;21.90;65.70;;;;;;5053621;28;1308;-68
2022/09/02 01:48:58;;;;;;;;;;;21.90;65.80;;;;;;5053746;28;1080;-67
2022/09/02 01:51:23;;;;;;;;;;;21.90;65.80;;;;;;5053417;28;1294;-67
2022/09/02 01:53:49;;;;;;;;;;;21.90;65.80;;;;;;5053700;28;1297;-67
2022/09/02 01:56:14;;;;;;;;;;;21.90;65.80;;;;;;5053688;28;1252;-68
2022/09/02 01:58:40;;;;;;;;;;;21.90;65.80;;;;;;5053469;28;1399;-68
2022/09/02 02:01:06;;;;;;;;;;;21.90;65.90;;;;;;5070257;28;1471;-68
2022/09/02 02:03:34;;;;;;;;;;;21.90;65.90;;;;;;5053446;28;1894;-67
2022/09/02 02:06:00;;;;;;;;;;;21.90;65.80;;;;;;5053497;28;1668;-68
2022/09/02 02:08:26;;;;;;;;;;;21.90;65.90;;;;;;5054760;28;1295;-67
2022/09/02 02:10:51;;;;;;;;;;;21.90;65.90;;;;;;5053154;28;1169;-69
2022/09/02 02:13:16;;;;;;;;;;;21.90;65.90;;;;;;5054463;28;1158;-67
2022/09/02 02:15:42;;;;;;;;;;;21.90;65.90;;;;;;5053196;28;1311;-69
2022/09/02 02:18:08;;;;;;;;;;;21.90;65.90;;;;;;5053347;28;1319;-68
2022/09/02 02:20:33;;;;;;;;;;;21.90;65.90;;;;;;5036385;28;1312;-68
2022/09/02 02:22:59;;;;;;;;;;;21.90;65.90;;;;;;5052962;28;1956;-68
2022/09/02 02:25:24;;;;;;;;;;;21.90;66.00;;;;;;5054449;28;1064;-68
2022/09/02 02:27:50;;;;;;;;;;;21.90;66.10;;;;;;5053154;28;1215;-67
2022/09/02 02:30:16;;;;;;;;;;;21.90;66.00;;;;;;5044019;28;1990;-67
2022/09/02 02:32:42;;;;;;;;;;;21.90;66.10;;;;;;5051140;28;1090;-67
2022/09/02 02:35:07;;;;;;;;;;;21.90;66.00;;;;;;5053173;28;1106;-67
2022/09/02 02:37:33;;;;;;;;;;;21.90;66.00;;;;;;5054595;28;1091;-67
2022/09/02 02:39:58;;;;;;;;;;;21.90;66.00;;;;;;5053912;28;1326;-67
2022/09/02 02:42:24;;;;;;;;;;;21.90;66.10;;;;;;5054103;28;1436;-67
2022/09/02 02:44:49;;;;;;;;;;;21.90;66.10;;;;;;5052663;28;1890;-67
2022/09/02 02:47:15;;;;;;;;;;;21.90;66.10;;;;;;5053066;28;1475;-67
2022/09/02 02:49:41;;;;;;;;;;;21.90;66.10;;;;;;5053032;28;1210;-67
2022/09/02 02:52:07;;;;;;;;;;;21.90;66.10;;;;;;5052511;28;1219;-67
2022/09/02 02:54:32;;;;;;;;;;;21.90;66.10;;;;;;5052626;28;1166;-66
2022/09/02 02:56:58;;;;;;;;;;;21.90;66.20;;;;;;5053716;28;1425;-67
2022/09/02 02:59:24;;;;;;;;;;;21.90;66.20;;;;;;5052259;28;1088;-67
2022/09/02 03:01:50;;;;;;;;;;;21.90;66.20;;;;;;5053263;28;1206;-67
2022/09/02 03:04:15;;;;;;;;;;;21.90;66.20;;;;;;5052317;28;1914;-67
2022/09/02 03:06:41;;;;;;;;;;;21.90;66.20;;;;;;5053471;28;1131;-67
2022/09/02 03:09:06;;;;;;;;;;;21.90;66.20;;;;;;5053370;28;1154;-67
2022/09/02 03:11:32;;;;;;;;;;;21.90;66.20;;;;;;5053049;28;1268;-67
2022/09/02 03:13:58;;;;;;;;;;;21.90;66.30;;;;;;5053163;28;1138;-67
2022/09/02 03:16:23;;;;;;;;;;;21.90;66.20;;;;;;5052931;28;1127;-67
2022/09/02 03:18:49;;;;;;;;;;;21.90;66.20;;;;;;5053312;28;1134;-67
2022/09/02 03:21:14;;;;;;;;;;;21.90;66.30;;;;;;5051555;28;1418;-67
2022/09/02 03:23:40;;;;;;;;;;;21.90;66.30;;;;;;5053187;28;1906;-67
2022/09/02 03:26:15;;;;;;;;;;;21.90;66.30;;;;;;5051960;28;1127;-67
2022/09/02 03:28:41;;;;;;;;;;;21.90;66.30;;;;;;5051822;28;1154;-67
2022/09/02 03:31:06;;;;;;;;;;;21.90;66.30;;;;;;5052645;28;1201;-67
2022/09/02 03:33:32;;;;;;;;;;;21.90;66.30;;;;;;5051961;28;1080;-67
2022/09/02 03:35:58;;;;;;;;;;;21.90;66.40;;;;;;5051772;28;1223;-67
2022/09/02 03:38:23;;;;;;;;;;;21.90;66.40;;;;;;5053015;28;1302;-67
2022/09/02 03:40:49;;;;;;;;;;;21.90;66.40;;;;;;5051460;28;1632;-67
2022/09/02 03:43:14;;;;;;;;;;;21.90;66.50;;;;;;5051193;28;1945;-67
2022/09/02 03:45:40;;;;;;;;;;;21.90;66.40;;;;;;5051738;28;1127;-67
2022/09/02 03:48:06;;;;;;;;;;;21.90;66.50;;;;;;5052895;28;1292;-67
2022/09/02 03:50:33;;;;;;;;;;;21.90;66.50;;;;;;5051483;28;1305;-67
2022/09/02 03:52:58;;;;;;;;;;;21.90;66.50;;;;;;5052669;28;1079;-67
2022/09/02 03:55:24;;;;;;;;;;;21.90;66.50;;;;;;5051589;28;1446;-67
2022/09/02 03:57:49;;;;;;;;;;;21.90;66.50;;;;;;5041939;28;1176;-67
2022/09/02 04:00:15;;;;;;;;;;;21.90;66.50;;;;;;5052204;28;1201;-67
2022/09/02 04:02:41;;;;;;;;;;;21.90;66.50;;;;;;5052513;28;1906;-67
2022/09/02 04:05:07;;;;;;;;;;;21.90;66.60;;;;;;5051315;28;1494;-67
2022/09/02 04:07:32;;;;;;;;;;;21.90;66.60;;;;;;5052373;28;945;-66
2022/09/02 04:09:58;;;;;;;;;;;21.90;66.50;;;;;;5051193;28;1264;-67
2022/09/02 04:12:23;;;;;;;;;;;21.90;66.50;;;;;;5052138;28;1138;-67
2022/09/02 04:14:49;;;;;;;;;;;21.90;66.60;;;;;;5052537;28;1111;-66
2022/09/02 04:17:14;;;;;;;;;;;21.90;66.60;;;;;;5052858;28;1143;-67
2022/09/02 04:19:40;;;;;;;;;;;21.90;66.60;;;;;;5052642;28;1286;-67
2022/09/02 04:22:06;;;;;;;;;;;21.90;66.60;;;;;;5052678;28;1126;-67
2022/09/02 04:24:31;;;;;;;;;;;21.90;66.70;;;;;;5052540;28;1993;-67
2022/09/02 04:26:56;;;;;;;;;;;21.90;66.70;;;;;;5033549;28;1271;-67
2022/09/02 04:29:23;;;;;;;;;;;21.90;66.70;;;;;;5056437;28;1179;-66
2022/09/02 04:31:48;;;;;;;;;;;21.90;66.70;;;;;;5056049;28;1420;-67
2022/09/02 04:34:13;;;;;;;;;;;21.90;66.70;;;;;;5055064;28;1293;-66
2022/09/02 04:36:39;;;;;;;;;;;21.90;66.70;;;;;;5056349;28;1080;-67
2022/09/02 04:39:07;;;;;;;;;;;21.90;66.70;;;;;;5056548;28;1346;-66
2022/09/02 04:41:34;;;;;;;;;;;21.90;66.70;;;;;;5054381;28;1209;-67
2022/09/02 04:44:00;;;;;;;;;;;21.90;66.80;;;;;;5054980;28;1956;-67
2022/09/02 04:46:25;;;;;;;;;;;21.90;66.80;;;;;;5056454;28;1119;-66
2022/09/02 04:48:51;;;;;;;;;;;21.90;66.80;;;;;;5056301;28;1067;-66
2022/09/02 04:51:17;;;;;;;;;;;21.90;66.80;;;;;;5055558;28;1408;-67
2022/09/02 04:53:43;;;;;;;;;;;21.90;66.80;;;;;;5055120;28;1151;-66
2022/09/02 04:56:09;;;;;;;;;;;21.90;66.80;;;;;;5055876;28;1099;-67
2022/09/02 04:58:34;;;;;;;;;;;21.90;66.80;;;;;;5044782;28;1202;-66
2022/09/02 05:01:07;;;;;;;;;;;21.90;66.80;;;;;;5071056;28;1376;-67
2022/09/02 05:03:32;;;;;;;;;;;21.90;66.90;;;;;;5056031;28;1958;-66
2022/09/02 05:05:58;;;;;;;;;;;21.90;66.90;;;;;;5055772;28;1664;-66
2022/09/02 05:08:24;;;;;;;;;;;21.90;66.90;;;;;;5054404;28;1128;-66
2022/09/02 05:10:50;;;;;;;;;;;21.90;66.90;;;;;;5055917;28;1270;-66
2022/09/02 05:13:16;;;;;;;;;;;21.90;66.90;;;;;;5055444;28;1044;-67
2022/09/02 05:15:43;;;;;;;;;;;21.90;66.90;;;;;;5055794;28;1083;-67
2022/09/02 05:18:09;;;;;;;;;;;21.90;66.90;;;;;;5055920;28;1542;-66
2022/09/02 05:20:38;;;;;;;;;;;21.90;66.90;;;;;;5055383;28;1263;-66
2022/09/02 05:23:04;;;;;;;;;;;21.90;66.90;;;;;;5037447;28;1906;-66
2022/09/02 05:25:30;;;;;;;;;;;21.90;66.90;;;;;;5054263;28;1331;-66
2022/09/02 05:27:55;;;;;;;;;;;21.90;66.90;;;;;;5055819;28;1217;-66
2022/09/02 05:30:21;;;;;;;;;;;21.90;67.00;;;;;;5055295;28;1281;-66
2022/09/02 05:32:48;;;;;;;;;;;21.90;67.00;;;;;;5055194;28;1524;-66
2022/09/02 05:35:14;;;;;;;;;;;21.90;67.00;;;;;;5055266;28;1087;-66
2022/09/02 05:37:39;;;;;;;;;;;21.90;67.00;;;;;;5053334;28;1062;-68
2022/09/02 05:40:05;;;;;;;;;;;21.90;67.80;;;;;;5054955;28;1269;-69
2022/09/02 05:42:31;;;;;;;;;;;21.90;65.10;;;;;;5054933;28;1278;-68
2022/09/02 05:44:56;;;;;;;;;;;21.90;60.70;;;;;;5055314;28;1953;-68
2022/09/02 05:47:23;;;;;;;;;;;21.90;60.80;;;;;;5055358;28;1508;-68
2022/09/02 05:49:49;;;;;;;;;;;21.90;62.90;;;;;;5046223;28;1797;-71
2022/09/02 05:52:16;;;;;;;;;;;21.90;63.00;;;;;;5048600;28;1189;-69
2022/09/02 05:54:41;;;;;;;;;;;21.80;62.30;;;;;;5045665;28;1102;-71
2022/09/02 05:57:08;;;;;;;;;;;21.80;61.70;;;;;;5049392;28;1123;-70
2022/09/02 05:59:35;;;;;;;;;;;21.80;62.00;;;;;;5046906;28;1127;-71
2022/09/02 06:02:01;;;;;;;;;;;21.80;62.30;;;;;;5053633;28;1555;-72
2022/09/02 06:04:26;;;;;;;;;;;21.80;62.30;;;;;;5035942;28;1902;-72
2022/09/02 06:06:51;;;;;;;;;;;21.80;62.30;;;;;;5052120;28;897;-72
2022/09/02 06:09:18;;;;;;;;;;;21.80;62.10;;;;;;5053916;28;807;-71
2022/09/02 06:11:45;;;;;;;;;;;21.80;62.00;;;;;;5052128;28;1174;-69
2022/09/02 06:14:12;;;;;;;;;;;21.80;61.70;;;;;;5035858;28;1638;-69
2022/09/02 06:16:38;;;;;;;;;;;21.80;61.80;;;;;;5052532;28;843;-69
2022/09/02 06:19:03;;;;;;;;;;;21.80;61.40;;;;;;5053226;28;863;-70
2022/09/02 06:21:29;;;;;;;;;;;21.80;61.70;;;;;;5052926;28;1179;-69
2022/09/02 06:23:55;;;;;;;;;;;21.70;61.90;;;;;;5053856;28;1910;-69
2022/09/02 06:26:20;;;;;;;;;;;21.70;61.70;;;;;;5052344;28;1122;-69
2022/09/02 06:28:46;;;;;;;;;;;21.70;61.70;;;;;;5052471;28;841;-69
2022/09/02 06:31:13;;;;;;;;;;;21.80;61.50;;;;;;5052938;28;1248;-69
2022/09/02 06:33:39;;;;;;;;;;;21.70;61.20;;;;;;5053600;28;882;-68
2022/09/02 06:36:06;;;;;;;;;;;21.70;60.90;;;;;;5053016;28;977;-70
2022/09/02 06:38:31;;;;;;;;;;;21.70;61.30;;;;;;5052000;28;771;-68
2022/09/02 06:40:57;;;;;;;;;;;21.70;61.30;;;;;;5051574;28;1211;-69
2022/09/02 06:43:22;;;;;;;;;;;21.70;61.40;;;;;;5053121;28;1901;-70
2022/09/02 06:45:48;;;;;;;;;;;21.70;61.00;;;;;;5053392;28;803;-69
2022/09/02 06:48:13;;;;;;;;;;;21.70;61.20;;;;;;5053053;28;815;-69
2022/09/02 06:50:39;;;;;;;;;;;21.70;61.10;;;;;;5052611;28;1196;-67
2022/09/02 06:53:06;;;;;;;;;;;21.70;61.10;;;;;;5052506;28;792;-67
2022/09/02 06:55:35;;;;;;;;;;;21.70;60.80;;;;;;5069392;28;1353;-69
2022/09/02 06:58:01;;;;;;;;;;;21.70;61.00;;;;;;5050479;28;1182;-68
2022/09/02 07:00:26;;;;;;;;;;;21.70;61.10;;;;;;5052495;28;1314;-68
2022/09/02 07:05:08;;;;;;;;;;;21.70;61.10;;;;;;5053376;28;1894;-68
2022/09/02 07:05:38;;;;;;;;;;;21.70;60.90;;;;;;5053682;28;997;-68
2022/09/02 07:08:03;;;;;;;;;;;21.70;60.90;;;;;;5053816;28;898;-68
2022/09/02 07:10:29;;;;;;;;;;;21.70;61.20;;;;;;5053509;28;1188;-68
2022/09/02 07:12:54;;;;;;;;;;;21.70;60.30;;;;;;5052213;28;819;-68
2022/09/02 07:15:19;;;;;;;;;;;21.70;60.70;;;;;;5054014;28;898;-68
2022/09/02 07:17:45;;;;;;;;;;;21.70;60.10;;;;;;5053422;28;894;-68
2022/09/02 07:20:10;;;;;;;;;;;21.70;60.50;;;;;;5053162;28;1271;-68
2022/09/02 07:22:37;;;;;;;;;;;21.70;60.30;;;;;;5052595;28;851;-70
2022/09/02 07:25:02;;;;;;;;;;;21.70;60.50;;;;;;5052375;28;1965;-70
2022/09/02 07:27:28;;;;;;;;;;;21.70;60.20;;;;;;5058676;28;1297;-70
2022/09/02 07:29:55;;;;;;;;;;;21.70;60.60;;;;;;5053087;28;1227;-70
2022/09/02 07:32:20;;;;;;;;;;;21.70;60.50;;;;;;5052808;28;832;-70
2022/09/02 07:34:46;;;;;;;;;;;21.70;60.40;;;;;;5053256;28;886;-70
2022/09/02 07:37:11;;;;;;;;;;;21.70;60.40;;;;;;5053156;28;844;-69
2022/09/02 07:39:37;;;;;;;;;;;21.70;60.40;;;;;;5053139;28;805;-70
2022/09/02 07:42:02;;;;;;;;;;;21.70;60.30;;;;;;5052774;28;1215;-68
2022/09/02 07:44:28;;;;;;;;;;;21.70;60.50;;;;;;5052942;28;1898;-68
2022/09/02 07:46:53;;;;;;;;;;;21.70;60.90;;;;;;5052888;28;870;-68
2022/09/02 07:49:19;;;;;;;;;;;21.70;60.80;;;;;;5068517;28;879;-68
2022/09/02 07:51:48;;;;;;;;;;;21.70;60.50;;;;;;5051646;28;1193;-68
2022/09/02 07:54:13;;;;;;;;;;;21.70;60.70;;;;;;5052885;28;827;-68
2022/09/02 07:56:39;;;;;;;;;;;21.70;60.40;;;;;;5053028;28;1111;-68
2022/09/02 07:59:05;;;;;;;;;;;21.70;60.40;;;;;;5042747;28;1130;-68
2022/09/02 08:01:30;;;;;;;;;;;21.70;60.40;;;;;;5031932;28;1279;-68
2022/09/02 08:03:56;;;;;;;;;;;21.70;60.30;;;;;;5033022;28;1905;-67
2022/09/02 08:06:25;;;;;;;;;;;21.70;60.10;;;;;;5033021;28;830;-67
2022/09/02 08:08:51;;;;;;;;;;;21.70;60.40;;;;;;5032920;28;879;-67
2022/09/02 08:11:17;;;;;;;;;;;21.70;59.90;;;;;;5032794;28;1288;-68
2022/09/02 08:13:42;;;;;;;;;;;21.70;59.80;;;;;;5033471;28;847;-68
2022/09/02 08:16:08;;;;;;;;;;;21.70;59.90;;;;;;5032587;28;831;-67
2022/09/02 08:18:34;;;;;;;;;;;21.70;59.50;;;;;;5032708;28;1152;-67
2022/09/02 08:20:59;;;;;;;;;;;21.70;59.40;;;;;;5032249;28;1200;-67
2022/09/02 08:23:24;;;;;;;;;;;21.70;59.20;;;;;;5033201;28;1961;-67
2022/09/02 08:25:50;;;;;;;;;;;21.70;59.30;;;;;;5032724;28;831;-67
2022/09/02 08:28:15;;;;;;;;;;;21.70;59.30;;;;;;5048934;28;1120;-67
2022/09/02 08:30:41;;;;;;;;;;;21.70;59.60;;;;;;5052497;28;1279;-69
2022/09/02 08:33:06;;;;;;;;;;;21.70;59.10;;;;;;5052411;28;875;-67
2022/09/02 08:35:32;;;;;;;;;;;21.70;59.10;;;;;;5052724;28;745;-67
2022/09/02 08:37:58;;;;;;;;;;;21.70;59.30;;;;;;5051179;28;1029;-68
2022/09/02 08:40:24;;;;;;;;;;;21.70;59.50;;;;;;5052108;28;1690;-68
2022/09/02 08:42:53;;;;;;;;;;;21.70;59.40;;;;;;5050981;28;1894;-66
2022/09/02 08:45:36;;;;;;;;;;;21.70;59.40;;;;;;5052122;28;891;-67
2022/09/02 08:48:04;;;;;;;;;;;21.70;59.30;;;;;;5051342;28;850;-68
2022/09/02 08:50:30;;;;;;;;;;;21.70;59.20;;;;;;5052319;28;1208;-68
2022/09/02 08:53:15;;;;;;;;;;;21.70;59.20;;;;;;5052308;28;827;-67
2022/09/02 08:55:54;;;;;;;;;;;21.70;59.50;;;;;;5050960;28;878;-67
2022/09/02 08:58:21;;;;;;;;;;;21.70;59.30;;;;;;5051053;28;1123;-67
2022/09/02 09:00:50;;;;;;;;;;;21.70;59.50;;;;;;5050868;28;1342;-66
2022/09/02 09:03:22;;;;;;;;;;;21.70;59.40;;;;;;5050893;28;1965;-67
2022/09/02 09:05:48;;;;;;;;;;;21.70;59.20;;;;;;5052225;28;1025;-67
2022/09/02 09:08:19;;;;;;;;;;;21.70;59.30;;;;;;5052109;28;922;-67
2022/09/02 09:10:48;;;;;;;;;;;21.70;59.30;;;;;;5050615;28;1192;-67
2022/09/02 09:13:20;;;;;;;;;;;21.70;59.10;;;;;;5051989;28;846;-66
2022/09/02 09:16:01;;;;;;;;;;;21.70;59.00;;;;;;5054678;28;914;-66
2022/09/02 09:18:36;;;;;;;;;;;21.70;59.00;;;;;;5055653;28;883;-67
2022/09/02 09:21:02;;;;;;;;;;;21.70;59.10;;;;;;5055190;28;1195;-67
2022/09/02 09:23:29;;;;;;;;;;;21.70;58.90;;;;;;5054513;28;1906;-68
2022/09/02 09:26:04;;;;;;;;;;;21.70;59.30;;;;;;5055584;28;851;-69
2022/09/02 09:28:30;;;;;;;;;;;21.70;58.50;;;;;;5034342;28;1248;-69
2022/09/02 09:30:56;;;;;;;;;;;21.70;58.70;;;;;;5035209;28;1209;-68
2022/09/02 09:33:21;;;;;;;;;;;21.70;58.40;;;;;;5035553;28;792;-69
2022/09/02 09:35:48;;;;;;;;;;;21.70;58.40;;;;;;5035381;28;1089;-69
2022/09/02 09:38:14;;;;;;;;;;;21.70;58.40;;;;;;5034273;28;839;-70
2022/09/02 09:40:39;;;;;;;;;;;21.70;58.30;;;;;;5035148;28;1282;-71
2022/09/02 09:43:05;;;;;;;;;;;21.70;58.10;;;;;;5034054;28;1893;-68
2022/09/02 09:45:33;;;;;;;;;;;21.70;58.20;;;;;;5035056;28;671;-69
2022/09/02 09:48:14;;;;;;;;;;;21.70;57.80;;;;;;5035437;28;816;-69
2022/09/02 09:50:39;;;;;;;;;;;21.70;57.20;;;;;;5034944;28;1134;-69
2022/09/02 09:53:23;;;;;;;;;;;21.70;57.00;;;;;;5035339;28;875;-69
2022/09/02 09:55:53;;;;;;;;;;;21.70;57.40;;;;;;5035002;28;986;-69
2022/09/02 09:58:18;;;;;;;;;;;21.70;57.40;;;;;;5048290;28;1100;-69
2022/09/02 10:00:44;;;;;;;;;;;21.70;57.70;;;;;;5054635;28;1275;-69
2022/09/02 10:03:10;;;;;;;;;;;21.70;57.80;;;;;;5054792;28;1906;-69
2022/09/02 10:05:39;;;;;;;;;;;21.70;57.80;;;;;;5037039;28;1612;-68
2022/09/02 10:08:05;;;;;;;;;;;21.70;57.70;;;;;;5054995;28;863;-69
2022/09/02 10:10:31;;;;;;;;;;;21.70;57.70;;;;;;5053094;28;1281;-69
2022/09/02 10:13:00;;;;;;;;;;;21.70;57.70;;;;;;5054476;28;804;-69
2022/09/02 10:15:26;;;;;;;;;;;21.70;57.20;;;;;;5053482;28;808;-69
2022/09/02 10:18:05;;;;;;;;;;;21.70;57.10;;;;;;5054769;28;1056;-68
2022/09/02 10:20:31;;;;;;;;;;;21.70;57.30;;;;;;5053128;28;1322;-69
2022/09/02 10:23:11;;;;;;;;;;;21.70;57.50;;;;;;5054713;28;1910;-69
2022/09/02 10:25:43;;;;;;;;;;;21.70;57.20;;;;;;5052948;28;1371;-69
2022/09/02 10:28:18;;;;;;;;;;;21.70;57.10;;;;;;5039234;28;1133;-69
2022/09/02 10:30:48;;;;;;;;;;;21.70;57.40;;;;;;5034319;28;1188;-68
2022/09/02 10:33:28;;;;;;;;;;;21.70;57.20;;;;;;5033167;28;883;-68
2022/09/02 10:35:57;;;;;;;;;;;21.70;57.30;;;;;;5034520;28;800;-70
2022/09/02 10:38:34;;;;;;;;;;;21.70;57.10;;;;;;5033496;28;876;-67
2022/09/02 10:41:19;;;;;;;;;;;21.70;57.00;;;;;;5032669;28;1303;-67
2022/09/02 10:43:44;;;;;;;;;;;21.70;57.20;;;;;;5034201;28;1898;-69
2022/09/02 10:46:09;;;;;;;;;;;21.70;57.40;;;;;;5034130;28;915;-67
2022/09/02 10:48:41;;;;;;;;;;;21.70;57.40;;;;;;5033043;28;948;-68
2022/09/02 10:51:14;;;;;;;;;;;21.70;57.40;;;;;;5034010;28;1184;-69
2022/09/02 10:53:58;;;;;;;;;;;21.70;57.40;;;;;;5034289;28;725;-68
2022/09/02 10:56:36;;;;;;;;;;;21.70;56.80;;;;;;5033873;28;796;-71
2022/09/02 10:59:07;;;;;;;;;;;21.70;56.60;;;;;;5042369;28;1164;-70
2022/09/02 11:01:36;;;;;;;;;;;21.70;56.00;;;;;;5053365;28;1211;-70
2022/09/02 11:04:04;;;;;;;;;;;21.70;56.40;;;;;;5054162;28;1901;-71
2022/09/02 11:06:30;;;;;;;;;;;21.70;55.70;;;;;;5052593;28;1045;-69
2022/09/02 11:08:58;;;;;;;;;;;21.70;55.60;;;;;;5052338;28;997;-69
2022/09/02 11:11:23;;;;;;;;;;;21.70;55.00;;;;;;5052004;28;1581;-71
2022/09/02 11:13:51;;;;;;;;;;;21.70;54.60;;;;;;5053695;28;993;-71
2022/09/02 11:16:32;;;;;;;;;;;21.70;55.00;;;;;;5053867;28;784;-71
2022/09/02 11:19:16;;;;;;;;;;;21.70;54.40;;;;;;5053811;28;768;-71
2022/09/02 11:21:45;;;;;;;;;;;21.80;54.60;;;;;;5053046;28;1290;-71
2022/09/02 11:24:31;;;;;;;;;;;21.70;53.80;;;;;;5052358;28;1961;-70
2022/09/02 11:26:59;;;;;;;;;;;21.80;53.70;;;;;;5048882;28;1143;-70
2022/09/02 11:29:29;;;;;;;;;;;21.80;54.10;;;;;;5032144;28;1160;-70
2022/09/02 11:32:21;;;;;;;;;;;21.80;53.70;;;;;;5031668;28;1311;-70
2022/09/02 11:34:47;;;;;;;;;;;21.80;53.50;;;;;;5031155;28;1092;-70
2022/09/02 11:37:22;;;;;;;;;;;21.80;53.60;;;;;;5031697;28;1095;-70
2022/09/02 11:39:52;;;;;;;;;;;21.80;52.90;;;;;;5031947;28;1187;-71
2022/09/02 11:42:23;;;;;;;;;;;21.80;53.90;;;;;;5031676;28;812;-70
2022/09/02 11:45:10;;;;;;;;;;;21.80;54.00;;;;;;5033163;28;1902;-68
2022/09/02 11:47:42;;;;;;;;;;;21.80;54.10;;;;;;5032082;28;895;-68
2022/09/02 11:50:10;;;;;;;;;;;21.70;54.40;;;;;;5032916;28;1197;-68
2022/09/02 11:52:44;;;;;;;;;;;21.70;54.40;;;;;;5031650;28;983;-69
2022/09/02 11:55:15;;;;;;;;;;;21.70;55.00;;;;;;5033128;28;808;-68
2022/09/02 11:57:40;;;;;;;;;;;21.70;55.00;;;;;;5041452;28;1172;-69
2022/09/02 12:00:07;;;;;;;;;;;21.70;55.20;;;;;;5048552;28;1279;-67
2022/09/02 12:02:38;;;;;;;;;;;21.70;55.10;;;;;;5033134;28;824;-68
2022/09/02 12:05:22;;;;;;;;;;;21.70;55.00;;;;;;5032847;28;1960;-68
2022/09/02 12:07:48;;;;;;;;;;;21.70;55.00;;;;;;5033076;28;808;-68
2022/09/02 12:10:33;;;;;;;;;;;21.70;54.70;;;;;;5032893;28;1275;-68
2022/09/02 12:12:59;;;;;;;;;;;21.70;54.70;;;;;;5032853;28;828;-68
2022/09/02 12:15:24;;;;;;;;;;;21.70;54.70;;;;;;5033013;28;825;-67
2022/09/02 12:17:50;;;;;;;;;;;21.70;54.60;;;;;;5031615;28;788;-69
2022/09/02 12:20:34;;;;;;;;;;;21.70;55.00;;;;;;5032552;28;1219;-68
2022/09/02 12:23:00;;;;;;;;;;;21.70;55.30;;;;;;5032689;28;1945;-68
2022/09/02 12:25:27;;;;;;;;;;;21.70;55.00;;;;;;5031569;28;899;-68
2022/09/02 12:28:08;;;;;;;;;;;21.70;54.10;;;;;;5040371;28;1920;-68
2022/09/02 12:30:52;;;;;;;;;;;21.70;54.20;;;;;;5049243;28;2309;-68
2022/09/02 12:33:27;;;;;;;;;;;21.70;54.50;;;;;;5043598;28;1139;-67
2022/09/02 12:35:53;;;;;;;;;;;21.70;55.00;;;;;;5051534;28;1214;-68
2022/09/02 12:38:28;;;;;;;;;;;21.70;55.90;;;;;;5051323;28;992;-69
2022/09/02 12:40:59;;;;;;;;;;;21.70;55.50;;;;;;5043769;28;1358;-73
2022/09/02 12:43:26;;;;;;;;;;;21.70;55.70;;;;;;5051366;28;1898;-69
2022/09/02 12:45:52;;;;;;;;;;;21.70;55.80;;;;;;5052481;28;1011;-68
2022/09/02 12:48:18;;;;;;;;;;;21.70;55.80;;;;;;5052710;28;894;-68
2022/09/02 12:50:44;;;;;;;;;;;21.70;55.70;;;;;;5056669;28;1238;-68
2022/09/02 12:53:12;;;;;;;;;;;21.70;55.70;;;;;;5055897;28;836;-68
2022/09/02 12:55:37;;;;;;;;;;;21.70;55.90;;;;;;5056259;28;893;-68
2022/09/02 12:58:06;;;;;;;;;;;21.70;55.90;;;;;;5043809;28;1122;-66
2022/09/02 13:00:34;;;;;;;;;;;21.70;55.80;;;;;;5036313;28;1393;-70
2022/09/02 13:03:22;;;;;;;;;;;21.70;55.40;;;;;;5035921;28;1955;-67
2022/09/02 13:06:04;;;;;;;;;;;21.70;54.70;;;;;;5034824;28;820;-68
2022/09/02 13:08:48;;;;;;;;;;;21.70;54.80;;;;;;5036105;28;878;-67
2022/09/02 13:11:25;;;;;;;;;;;21.70;54.80;;;;;;5035529;28;1316;-68
2022/09/02 13:13:56;;;;;;;;;;;21.70;54.80;;;;;;5034731;28;792;-67
2022/09/02 13:16:27;;;;;;;;;;;21.70;55.20;;;;;;5036082;28;974;-67
2022/09/02 13:19:11;;;;;;;;;;;21.70;55.20;;;;;;5034780;28;1030;-68
2022/09/02 13:21:40;;;;;;;;;;;21.70;55.30;;;;;;5059783;23;1706;-75
2022/09/02 13:24:08;;;;;;;;;;;21.70;55.10;;;;;;5062802;22;3703;-65
2022/09/02 13:26:45;;;;;;;;;;;21.70;55.30;;;;;;5053487;28;2139;-65
2022/09/02 13:29:30;;;;;;;;;;;21.70;55.20;;;;;;5051308;28;1118;-65
2022/09/02 13:32:16;;;;;;;;;;;21.70;55.20;;;;;;5055075;28;1276;-65
2022/09/02 13:34:42;;;;;;;;;;;21.70;55.30;;;;;;5047889;28;1207;-65
2022/09/02 13:37:27;;;;;;;;;;;21.70;55.50;;;;;;5055898;28;862;-65
2022/09/02 13:39:54;;;;;;;;;;;21.70;55.50;;;;;;5055402;28;1353;-66
2022/09/02 13:42:26;;;;;;;;;;;21.70;55.90;;;;;;5054807;28;1303;-65
2022/09/02 13:45:08;;;;;;;;;;;21.70;55.10;;;;;;5052881;28;1914;-65
2022/09/02 13:47:34;;;;;;;;;;;21.70;54.70;;;;;;5055065;28;954;-65
2022/09/02 13:50:00;;;;;;;;;;;21.70;54.80;;;;;;5054107;28;1013;-65
2022/09/02 13:52:25;;;;;;;;;;;21.70;55.00;;;;;;5054819;28;1291;-64
2022/09/02 13:54:54;;;;;;;;;;;21.70;55.00;;;;;;5055159;28;926;-64
2022/09/02 13:57:23;;;;;;;;;;;21.70;54.00;;;;;;5050622;28;1241;-64
2022/09/02 13:59:49;;;;;;;;;;;21.70;54.30;;;;;;5049043;28;1128;-64
2022/09/02 14:02:16;;;;;;;;;;;21.70;53.90;;;;;;5054785;28;1195;-64
2022/09/02 14:04:41;;;;;;;;;;;21.70;53.60;;;;;;5053681;28;1969;-64
2022/09/02 14:07:06;;;;;;;;;;;21.70;53.20;;;;;;5055032;28;949;-65
2022/09/02 14:09:32;;;;;;;;;;;21.70;53.70;;;;;;5055105;28;779;-64
2022/09/02 14:11:57;;;;;;;;;;;21.70;54.00;;;;;;5053163;28;1193;-65
2022/09/02 14:14:23;;;;;;;;;;;21.70;53.80;;;;;;5053351;28;1283;-64
2022/09/02 14:16:48;;;;;;;;;;;21.70;54.40;;;;;;5053605;28;895;-65
2022/09/02 14:19:15;;;;;;;;;;;21.70;54.40;;;;;;5054825;28;1048;-64
2022/09/02 14:21:47;;;;;;;;;;;21.70;54.80;;;;;;5054289;28;1183;-64
2022/09/02 14:24:13;;;;;;;;;;;21.70;54.90;;;;;;5053248;28;1914;-66
2022/09/02 14:26:42;;;;;;;;;;;21.70;54.80;;;;;;5054914;28;1253;-64
2022/09/02 14:29:10;;;;;;;;;;;21.70;54.50;;;;;;5054486;28;953;-65
2022/09/02 14:31:36;;;;;;;;;;;21.70;54.40;;;;;;5052843;28;1361;-65
2022/09/02 14:34:03;;;;;;;;;;;21.70;54.20;;;;;;5053308;28;1052;-65
2022/09/02 14:36:35;;;;;;;;;;;21.70;54.20;;;;;;5054436;28;873;-63
2022/09/02 14:39:30;;;;;;;;;;;21.70;54.60;;;;;;5053075;28;803;-64